A- A+ FrançaisEnglishEspañol中国

Services sur Internet Soldes sur Internet Des idées de cadeaux Météo Météo aéro

La météo à : Autours de vous Tarbes-Lourdes-PyrénéesLogne-Emerainville AlbertvillePau-Pyrénées

manche à air

La météo aéronautique pour les pilotes, la préparation du vol avec les METAR (METeorological Aerodrome Report, message d'observation des conditions météorologiques pour l'aviation) et Les TAF (Terminal Aerodrome Forecast : message de prévision à court terme des conditions météorologiques pour l'aviation). Et les autres ressources comme les VAC (Visual Approch Chart) et les NOTAM (Notice To Airman) pour préprer les vols.

Aéroport Mannheim Neuostheim (Allemagne) / OACI EDFM/ IATA MHG

L'altitude de l'aéroport Mannheim Neuostheim est de 94 m = 308 ft. Il est situé à proximité de Mannheim (Allemagne). La météo générale à 5 jours est disponible pour Stadtkreis Mannheim situé à 2.8 km.

METAR de l'aéroport Mannheim Neuostheim - EDFM

EDFM 091050Z 20011KT 9999 -RA BKN021 OVC034 08/05 Q1002

Décodage du METAR de l'aéroport Mannheim Neuostheim (DE)

METAR émis par EDFM le lundi 9 décembre 2019 à 10:50 heure TU. Attention ce METAR est obsolète car il a été émis il y a 1 heure et 37 minutes.

La visibilité est de supérieure à 10 km = supérieure à 6.2 sm.

La température est de 8°C = 46 °F et le point rosée est de 5°C = 41 °F . Ce qui correspond à 81% d'humidité relative.

Le QNH est de 1002 hPa = 29.59 inHg

Vent de 11 kt = 20 km/h, orienté à 200°.

Nuages : Couverture nuageuse fragmentée à 2100 ft = 640 mètres. Couverture nuageuse soudée à 3400 ft = 1040 mètres.

-RA

TAF de l'aéroport Mannheim Neuostheim - EDFM

EDFM 090800Z 0909/0918 19015G25KT 9999 BKN030 TEMPO 0909/0914 3000 SHRA BKN015CB BECMG 0911/0913 22009KT TEMPO 0914/0918 2000 SHRAGS BKN015CB

EDFM 090800Z 0909/0918 19015G25KT 9999 couverture nuageuse fragmentée à 030 temporairement 0909/0914 3000 SHRA couverture nuageuse fragmentée à 015CB devenant 0911/0913 22009KT temporairement 0914/0918 2000 SHRAGS couverture nuageuse fragmentée à 015CB

Aéroport à proximité de Mannheim Neuostheim

Météo générale à 5 jours à Stadtkreis Mannheim (2.8 km)Aéroport Weinheim Bergstrasse (13 km)Aéroport Herrenteich (14 km)Aéroport Hockenheim (16 km)Aéroport Worms (18 km)Aéroport Speyer (19 km)Aéroport Walldorf (22 km)

Vue aérienne de l'aéroport Mannheim Neuostheim

NOTAM de l'aéroport Mannheim Neuostheim

Les NOTAM sont fournis sans aucune garantie de leur actualité. Le pilote est le seul responsable de la vérification de sa validité avant de l'utiliser opérationnellement pour préparer un vol ou l'utiliser lors de sa navigation.

Pas de NOTAM

Sources des données